2VISN EGTE-EGJB
Flight info
| Callsign | 2VISN |
|---|---|
| Flight time | N/A |
| Altitude | 7000 |
| Route | DAWLY N864 ABBEW/N0250F090 N90 ENHEL N862 SKERY |
| Aircraft | SF50/L-SDGRWY/L |
Departure
| Time | 2026-04-25 19:18 |
|---|---|
| Airport | Exeter International Airport (EGTE) |
Arrival
| Time | N/A |
|---|---|
| Airport | Guernsey Airport (EGJB) |
| Time | Latitude | Longitude | Altitude | Speed | Heading |
|---|---|---|---|---|---|
| 2026-04-25 19:04 | 50.73053 | -3.41923 | 83 ft | 0 kts | 131° |
| 2026-04-25 19:14 | 50.73045 | -3.41996 | 83 ft | 5 kts | 292° |
| 2026-04-25 19:14 | 50.73047 | -3.42002 | 87 ft | 0 kts | 287° |
| 2026-04-25 19:15 | 50.73062 | -3.42096 | 84 ft | 15 kts | 279° |
| 2026-04-25 19:15 | 50.73065 | -3.42260 | 83 ft | 15 kts | 274° |
| 2026-04-25 19:16 | 50.73068 | -3.42456 | 83 ft | 20 kts | 269° |
| 2026-04-25 19:16 | 50.73076 | -3.42602 | 85 ft | 0 kts | 288° |
| 2026-04-25 19:16 | 50.73087 | -3.42647 | 83 ft | 14 kts | 299° |
| 2026-04-25 19:17 | 50.73168 | -3.42771 | 84 ft | 16 kts | 340° |
| 2026-04-25 19:17 | 50.73218 | -3.42727 | 83 ft | 5 kts | 76° |
| 2026-04-25 19:17 | 50.73223 | -3.42698 | 85 ft | 15 kts | 76° |
| 2026-04-25 19:17 | 50.73304 | -3.42099 | 89 ft | 93 kts | 79° |
| 2026-04-25 19:18 | 50.73486 | -3.41048 | 585 ft | 105 kts | 70° |
| 2026-04-25 19:18 | 50.73661 | -3.39695 | 904 ft | 140 kts | 83° |
| 2026-04-25 19:18 | 50.73838 | -3.38057 | 1302 ft | 162 kts | 81° |
| 2026-04-25 19:18 | 50.73997 | -3.36259 | 1807 ft | 166 kts | 93° |
| 2026-04-25 19:19 | 50.73401 | -3.34779 | 2347 ft | 167 kts | 147° |
| 2026-04-25 19:19 | 50.72310 | -3.34257 | 2877 ft | 171 kts | 180° |
| 2026-04-25 19:19 | 50.71194 | -3.34907 | 3399 ft | 175 kts | 211° |
| 2026-04-25 19:19 | 50.70491 | -3.35587 | 3761 ft | 176 kts | 211° |
| 2026-04-25 19:20 | 50.69049 | -3.36816 | 4463 ft | 180 kts | 207° |
| 2026-04-25 19:20 | 50.67932 | -3.37743 | 4990 ft | 182 kts | 207° |
| 2026-04-25 19:20 | 50.66810 | -3.38673 | 5482 ft | 183 kts | 208° |
| 2026-04-25 19:20 | 50.65678 | -3.39611 | 5973 ft | 184 kts | 208° |
| 2026-04-25 19:21 | 50.64541 | -3.40556 | 6445 ft | 186 kts | 208° |
| 2026-04-25 19:21 | 50.62193 | -3.42503 | 7006 ft | 204 kts | 208° |
| 2026-04-25 19:21 | 50.60904 | -3.43572 | 7015 ft | 214 kts | 208° |
| 2026-04-25 19:22 | 50.59567 | -3.44678 | 7017 ft | 219 kts | 208° |
| 2026-04-25 19:22 | 50.58301 | -3.45724 | 7009 ft | 185 kts | 208° |
| 2026-04-25 19:22 | 50.56133 | -3.46642 | 6992 ft | 151 kts | 185° |
| 2026-04-25 19:23 | 50.55056 | -3.46839 | 6998 ft | 165 kts | 187° |
| 2026-04-25 19:23 | 50.52435 | -3.47292 | 7016 ft | 219 kts | 186° |
| 2026-04-25 19:23 | 50.50829 | -3.47458 | 7015 ft | 243 kts | 176° |
| 2026-04-25 19:24 | 50.49152 | -3.46733 | 7019 ft | 257 kts | 155° |
| 2026-04-25 19:24 | 50.47547 | -3.45410 | 7018 ft | 264 kts | 151° |
| 2026-04-25 19:24 | 50.44241 | -3.42700 | 7011 ft | 270 kts | 153° |
| 2026-04-25 19:25 | 50.40885 | -3.39983 | 7012 ft | 272 kts | 152° |
| 2026-04-25 19:25 | 50.39205 | -3.38623 | 7012 ft | 272 kts | 152° |
| 2026-04-25 19:25 | 50.37526 | -3.37264 | 7012 ft | 272 kts | 152° |
| 2026-04-25 19:26 | 50.35842 | -3.35900 | 7012 ft | 272 kts | 152° |
| 2026-04-25 19:26 | 50.34173 | -3.34554 | 7012 ft | 273 kts | 152° |
| 2026-04-25 19:26 | 50.32485 | -3.33190 | 7012 ft | 273 kts | 152° |
| 2026-04-25 19:26 | 50.30796 | -3.31828 | 7012 ft | 273 kts | 152° |
| 2026-04-25 19:27 | 50.29106 | -3.30467 | 7012 ft | 273 kts | 152° |
| 2026-04-25 19:27 | 50.27962 | -3.29544 | 7007 ft | 273 kts | 152° |
| 2026-04-25 19:27 | 50.25719 | -3.27739 | 7007 ft | 273 kts | 152° |
| 2026-04-25 19:27 | 50.24028 | -3.26379 | 7007 ft | 273 kts | 152° |
| 2026-04-25 19:28 | 50.22258 | -3.25334 | 7002 ft | 272 kts | 167° |
| 2026-04-25 19:28 | 50.20401 | -3.24713 | 7003 ft | 272 kts | 167° |
| 2026-04-25 19:28 | 50.18556 | -3.24028 | 7004 ft | 273 kts | 166° |